createdAt,value
2019-02-03T00:01:14.262Z,33.50
2019-02-03T00:03:40.923Z,33.92
2019-02-03T00:06:07.669Z,36.05
2019-02-03T00:08:34.356Z,35.20
2019-02-03T00:11:01.026Z,38.00
2019-02-03T00:13:31.036Z,36.90
2019-02-03T00:15:56.876Z,37.58
2019-02-03T00:18:23.551Z,37.70
2019-02-03T00:20:50.098Z,40.75
2019-02-03T00:23:16.572Z,39.25
2019-02-03T00:25:43.144Z,38.53
2019-02-03T00:28:09.776Z,37.38
2019-02-03T00:30:36.723Z,38.23
2019-02-03T00:33:03.413Z,38.80
2019-02-03T00:35:29.987Z,40.65
2019-02-03T00:37:56.491Z,42.20
2019-02-03T00:40:23.022Z,41.13
2019-02-03T00:42:49.740Z,35.03
2019-02-03T00:45:16.422Z,40.85
2019-02-03T00:47:43.068Z,39.80
2019-02-03T00:50:12.549Z,40.10
2019-02-03T00:52:39.362Z,43.40
2019-02-03T00:55:14.814Z,36.63
2019-02-03T00:57:41.353Z,36.50
2019-02-03T01:00:11.929Z,33.85
2019-02-03T01:02:38.473Z,36.65
2019-02-03T01:05:08.840Z,40.50
2019-02-03T01:07:35.497Z,45.80
2019-02-03T01:10:04.627Z,37.17
2019-02-03T01:12:31.177Z,34.78
2019-02-03T01:14:57.756Z,35.65
2019-02-03T01:17:24.456Z,34.33
2019-02-03T01:19:51.136Z,33.65
2019-02-03T01:22:17.593Z,30.65
2019-02-03T01:24:44.159Z,33.65
2019-02-03T01:27:10.713Z,33.35
2019-02-03T01:29:37.180Z,34.48
2019-02-03T01:32:03.848Z,32.05
2019-02-03T01:34:30.353Z,29.37
2019-02-03T01:36:56.983Z,32.08
2019-02-03T01:39:23.332Z,32.17
2019-02-03T01:41:49.796Z,30.50
2019-02-03T01:44:16.379Z,34.27
2019-02-03T01:46:42.924Z,31.40
2019-02-03T01:49:09.387Z,30.62
2019-02-03T01:51:36.139Z,34.73
2019-02-03T01:54:02.985Z,32.35
2019-02-03T01:56:30.329Z,32.93
2019-02-03T01:58:56.772Z,35.35
2019-02-03T02:01:23.446Z,33.92
2019-02-03T02:03:50.083Z,35.63
2019-02-03T02:06:16.647Z,34.00
2019-02-03T02:08:43.295Z,33.00
2019-02-03T02:11:09.969Z,35.10
2019-02-03T02:13:36.426Z,34.63
2019-02-03T02:16:03.285Z,36.10
2019-02-03T02:18:29.737Z,36.48
2019-02-03T02:20:56.553Z,36.63
2019-02-03T02:23:23.310Z,39.05
2019-02-03T02:25:49.848Z,35.20
2019-02-03T02:28:16.620Z,39.35
2019-02-03T02:30:43.285Z,35.08
2019-02-03T02:33:09.980Z,34.60
2019-02-03T02:35:36.431Z,37.40
2019-02-03T02:38:07.334Z,36.98
2019-02-03T02:40:31.322Z,38.02
2019-02-03T02:42:58.008Z,40.88
2019-02-03T02:45:24.445Z,37.95
2019-02-03T02:47:50.933Z,36.93
2019-02-03T02:50:20.171Z,39.38
2019-02-03T02:52:46.794Z,36.70
2019-02-03T02:55:13.419Z,39.78
2019-02-03T02:57:40.089Z,40.83
2019-02-03T03:00:10.909Z,36.33
2019-02-03T03:02:37.388Z,37.73
2019-02-03T03:05:07.033Z,39.78
2019-02-03T03:07:33.576Z,37.85
2019-02-03T03:10:00.322Z,35.40
2019-02-03T03:12:26.700Z,36.48
2019-02-03T03:14:53.584Z,39.42
2019-02-03T03:17:20.019Z,44.03
2019-02-03T03:19:46.489Z,39.38
2019-02-03T03:22:13.041Z,44.90
2019-02-03T03:24:40.004Z,43.73
2019-02-03T03:27:06.564Z,44.10
2019-02-03T03:29:33.994Z,44.60
2019-02-03T03:32:00.708Z,45.60
2019-02-03T03:34:27.176Z,42.78
2019-02-03T03:36:53.617Z,43.58
2019-02-03T03:39:20.165Z,45.78
2019-02-03T03:41:46.724Z,44.63
2019-02-03T03:44:13.582Z,45.10
2019-02-03T03:46:40.160Z,43.87
2019-02-03T03:49:07.000Z,43.42
2019-02-03T03:51:33.569Z,45.78
2019-02-03T03:54:00.109Z,42.83
2019-02-03T03:56:26.580Z,43.10
2019-02-03T03:58:53.135Z,41.23
2019-02-03T04:01:19.700Z,43.25
2019-02-03T04:03:46.349Z,42.78
2019-02-03T04:06:13.202Z,41.30
2019-02-03T04:08:45.159Z,41.98
2019-02-03T04:11:08.276Z,42.98
2019-02-03T04:13:34.739Z,42.33
2019-02-03T04:16:01.280Z,45.03
2019-02-03T04:18:27.855Z,41.77
2019-02-03T04:20:54.416Z,38.25
2019-02-03T04:23:21.089Z,41.92
2019-02-03T04:25:49.542Z,42.03
2019-02-03T04:28:16.008Z,41.08
2019-02-03T04:30:42.494Z,41.55
2019-02-03T04:33:08.978Z,39.85
2019-02-03T04:35:35.424Z,41.90
2019-02-03T04:38:01.970Z,37.55
2019-02-03T04:40:28.635Z,37.67
2019-02-03T04:42:55.290Z,38.55
2019-02-03T04:45:22.765Z,41.23
2019-02-03T04:47:49.516Z,41.88
2019-02-03T04:50:17.885Z,37.75
2019-02-03T04:52:44.439Z,38.60
2019-02-03T04:55:14.692Z,40.03
2019-02-03T04:57:41.239Z,37.78
2019-02-03T05:00:11.216Z,38.60
2019-02-03T05:02:37.661Z,39.10
2019-02-03T05:05:05.117Z,42.98
2019-02-03T05:07:31.684Z,39.42
2019-02-03T05:09:58.129Z,38.42
2019-02-03T05:12:24.709Z,38.05
2019-02-03T05:14:51.162Z,40.83
2019-02-03T05:17:18.979Z,42.10
2019-02-03T05:19:45.880Z,39.67
2019-02-03T05:22:12.359Z,37.70
2019-02-03T05:24:38.791Z,39.15
2019-02-03T05:27:05.260Z,36.53
2019-02-03T05:29:32.127Z,38.85
2019-02-03T05:31:58.595Z,39.10
2019-02-03T05:34:25.044Z,40.67
2019-02-03T05:36:51.602Z,39.10
2019-02-03T05:39:25.031Z,40.00
2019-02-03T05:41:46.617Z,40.17
2019-02-03T05:44:13.170Z,43.48
2019-02-03T05:46:39.910Z,39.50
2019-02-03T05:49:06.475Z,41.60
2019-02-03T05:51:33.070Z,43.08
2019-02-03T05:53:59.548Z,40.58
2019-02-03T05:56:26.095Z,40.55
2019-02-03T05:58:52.683Z,40.17
2019-02-03T06:01:19.120Z,42.38
2019-02-03T06:03:45.563Z,44.65
2019-02-03T06:06:12.132Z,38.48
2019-02-03T06:08:38.593Z,41.02
2019-02-03T06:11:05.064Z,43.17
2019-02-03T06:13:31.529Z,42.93
2019-02-03T06:15:57.988Z,38.67
2019-02-03T06:18:24.557Z,42.48
2019-02-03T06:20:51.016Z,46.45
2019-02-03T06:23:17.572Z,44.10
2019-02-03T06:25:44.491Z,40.90
2019-02-03T06:28:11.072Z,41.33
2019-02-03T06:30:53.216Z,39.23
2019-02-03T06:33:19.764Z,42.50
2019-02-03T06:35:46.409Z,41.42
2019-02-03T06:38:12.892Z,41.08
2019-02-03T06:40:39.538Z,40.30
2019-02-03T06:43:06.014Z,35.92
2019-02-03T06:45:40.236Z,38.35
2019-02-03T06:48:07.490Z,39.53
2019-02-03T06:50:34.227Z,37.00
2019-02-03T06:53:00.702Z,39.55
2019-02-03T06:55:27.260Z,37.93
2019-02-03T06:57:54.172Z,39.10
2019-02-03T07:00:20.653Z,34.13
2019-02-03T07:02:47.369Z,36.90
2019-02-03T07:05:13.849Z,33.80
2019-02-03T07:07:40.298Z,37.17
2019-02-03T07:10:09.175Z,36.13
2019-02-03T07:12:35.623Z,35.43
2019-02-03T07:15:04.392Z,33.73
2019-02-03T07:17:30.945Z,37.00
2019-02-03T07:19:57.415Z,38.88
2019-02-03T07:22:24.112Z,35.20
2019-02-03T07:24:50.963Z,38.55
2019-02-03T07:27:17.541Z,36.38
2019-02-03T07:29:44.101Z,33.13
2019-02-03T07:32:10.576Z,39.30
2019-02-03T07:34:37.280Z,37.08
2019-02-03T07:37:04.059Z,35.35
2019-02-03T07:39:30.605Z,37.48
2019-02-03T07:41:57.647Z,34.75
2019-02-03T07:44:24.096Z,33.42
2019-02-03T07:46:50.810Z,37.73
2019-02-03T07:49:17.567Z,36.58
2019-02-03T07:51:44.128Z,33.85
2019-02-03T07:54:10.704Z,34.75
2019-02-03T07:56:37.153Z,34.25
2019-02-03T07:59:03.728Z,35.85
2019-02-03T08:01:30.380Z,35.05
2019-02-03T08:03:56.950Z,34.33
2019-02-03T08:06:23.498Z,37.83
2019-02-03T08:08:50.069Z,33.90
2019-02-03T08:11:16.620Z,29.90
2019-02-03T08:13:43.180Z,33.70
2019-02-03T08:16:09.740Z,34.08
2019-02-03T08:18:36.604Z,33.88
2019-02-03T08:21:03.522Z,29.50
2019-02-03T08:23:30.261Z,34.33
2019-02-03T08:25:56.849Z,35.83
2019-02-03T08:28:23.388Z,32.70
2019-02-03T08:30:50.211Z,32.45
2019-02-03T08:33:16.774Z,31.85
2019-02-03T08:35:43.542Z,33.00
2019-02-03T08:38:10.088Z,36.55
2019-02-03T08:40:37.665Z,29.77
2019-02-03T08:43:06.117Z,31.12
2019-02-03T08:45:32.702Z,31.40
2019-02-03T08:47:59.349Z,34.48
2019-02-03T08:50:26.004Z,35.13
2019-02-03T08:52:52.986Z,30.62
2019-02-03T08:55:19.729Z,30.20
2019-02-03T08:57:46.776Z,32.60
2019-02-03T09:00:22.809Z,33.67
2019-02-03T09:02:49.571Z,35.25
2019-02-03T09:05:16.619Z,29.32
2019-02-03T09:07:43.687Z,28.47
2019-02-03T09:10:16.747Z,28.27
2019-02-03T09:12:43.407Z,30.82
2019-02-03T09:15:13.460Z,31.93
2019-02-03T09:17:39.947Z,27.95
2019-02-03T09:20:10.461Z,29.05
2019-02-03T09:22:40.041Z,25.92
2019-02-03T09:25:07.804Z,27.13
2019-02-03T09:27:34.348Z,28.23
2019-02-03T09:30:00.813Z,26.45
2019-02-03T09:32:27.551Z,26.20
2019-02-03T09:34:54.026Z,24.40
2019-02-03T09:37:20.869Z,24.50
2019-02-03T09:39:47.533Z,26.02
2019-02-03T09:42:14.080Z,27.32
2019-02-03T09:44:40.543Z,25.70
2019-02-03T09:47:06.988Z,22.82
2019-02-03T09:49:33.540Z,26.82
2019-02-03T09:52:00.116Z,24.75
2019-02-03T09:54:26.575Z,25.77
2019-02-03T09:56:53.446Z,23.30
2019-02-03T09:59:19.892Z,25.15
2019-02-03T10:01:46.456Z,22.73
2019-02-03T10:04:12.904Z,22.58
2019-02-03T10:06:39.380Z,21.75
2019-02-03T10:09:06.132Z,20.52
2019-02-03T10:11:33.020Z,21.17
2019-02-03T10:13:59.464Z,21.17
2019-02-03T10:16:25.913Z,19.70
2019-02-03T10:18:52.484Z,19.32
2019-02-03T10:21:18.963Z,20.02
2019-02-03T10:23:45.523Z,19.55
2019-02-03T10:26:12.179Z,20.30
2019-02-03T10:28:38.656Z,18.40
2019-02-03T10:31:05.202Z,18.00
2019-02-03T10:33:31.964Z,17.75
2019-02-03T10:35:58.413Z,18.32
2019-02-03T10:38:24.880Z,16.50
2019-02-03T10:40:51.527Z,16.57
2019-02-03T10:43:18.092Z,14.50
2019-02-03T10:45:44.660Z,15.08
2019-02-03T10:48:11.424Z,16.20
2019-02-03T10:50:38.424Z,14.15
2019-02-03T10:53:07.677Z,12.87
2019-02-03T10:55:34.153Z,13.43
2019-02-03T10:58:00.983Z,13.67
2019-02-03T11:00:33.657Z,15.07
2019-02-03T11:03:00.698Z,13.70
2019-02-03T11:05:32.892Z,14.10
2019-02-03T11:07:59.557Z,13.10
2019-02-03T11:10:27.023Z,11.50
2019-02-03T11:12:53.789Z,11.53
2019-02-03T11:15:21.360Z,10.27
2019-02-03T11:17:48.239Z,10.00
2019-02-03T11:20:25.706Z,10.93
2019-02-03T11:22:53.131Z,11.77
2019-02-03T11:25:21.076Z,8.60
2019-02-03T11:27:48.251Z,9.60
2019-02-03T11:30:17.307Z,9.77
2019-02-03T11:32:44.175Z,9.27
2019-02-03T11:35:11.754Z,9.50
2019-02-03T11:37:38.424Z,10.13
2019-02-03T11:40:08.927Z,11.30
2019-02-03T11:42:35.403Z,9.00
2019-02-03T11:45:04.064Z,8.45
2019-02-03T11:47:30.555Z,9.43
2019-02-03T11:50:00.001Z,9.23
2019-02-03T11:52:25.778Z,9.13
2019-02-03T11:54:52.252Z,9.70
2019-02-03T11:57:19.016Z,7.58
2019-02-03T11:59:46.611Z,8.28
2019-02-03T12:02:13.352Z,8.28
2019-02-03T12:04:39.824Z,6.22
2019-02-03T12:07:06.368Z,6.22
2019-02-03T12:09:32.850Z,6.97
2019-02-03T12:12:00.928Z,6.97
2019-02-03T12:14:27.855Z,7.22
2019-02-03T12:16:54.313Z,6.15
2019-02-03T12:19:20.888Z,6.35
2019-02-03T12:21:47.597Z,6.67
2019-02-03T12:24:14.962Z,7.40
2019-02-03T12:26:41.805Z,7.75
2019-02-03T12:29:08.352Z,8.95
2019-02-03T12:31:34.936Z,7.45
2019-02-03T12:34:01.748Z,6.05
2019-02-03T12:36:28.231Z,7.55
2019-02-03T12:38:54.672Z,6.03
2019-02-03T12:41:21.532Z,6.62
2019-02-03T12:43:48.092Z,5.15
2019-02-03T12:46:14.980Z,5.25
2019-02-03T12:48:41.530Z,5.58
2019-02-03T12:51:08.076Z,5.53
2019-02-03T12:53:34.739Z,4.53
2019-02-03T12:56:01.315Z,4.30
2019-02-03T12:58:28.057Z,4.20
2019-02-03T13:00:54.612Z,4.42
2019-02-03T13:03:21.392Z,2.83
2019-02-03T13:05:48.435Z,3.40
2019-02-03T13:08:14.917Z,2.80
2019-02-03T13:10:41.661Z,6.83
2019-02-03T13:13:08.442Z,7.30
2019-02-03T13:15:40.994Z,3.75
2019-02-03T13:18:07.750Z,4.87
2019-02-03T13:20:34.825Z,3.80
2019-02-03T13:23:01.604Z,4.85
2019-02-03T13:25:28.192Z,4.80
2019-02-03T13:27:54.732Z,3.95
2019-02-03T13:30:26.673Z,4.30
2019-02-03T13:32:53.328Z,4.35
2019-02-03T13:35:20.309Z,3.40
2019-02-03T13:37:46.859Z,3.93
2019-02-03T13:40:14.849Z,3.57
2019-02-03T13:42:41.313Z,3.12
2019-02-03T13:45:20.652Z,2.80
2019-02-03T13:47:39.688Z,2.67
2019-02-03T13:50:12.693Z,3.55
2019-02-03T13:52:39.228Z,4.58
2019-02-03T13:55:08.721Z,4.87
2019-02-03T13:57:35.176Z,4.05
2019-02-03T14:00:02.612Z,5.12
2019-02-03T14:02:29.177Z,4.40
2019-02-03T14:04:55.836Z,4.00
2019-02-03T14:07:22.421Z,4.20
2019-02-03T14:09:48.973Z,3.60
2019-02-03T14:12:15.455Z,4.70
2019-02-03T14:14:41.908Z,4.53
2019-02-03T14:17:08.606Z,3.30
2019-02-03T14:19:35.048Z,4.15
2019-02-03T14:22:02.035Z,4.37
2019-02-03T14:24:28.497Z,4.25
2019-02-03T14:26:55.080Z,4.50
2019-02-03T14:29:21.753Z,5.37
2019-02-03T14:31:48.489Z,3.75
2019-02-03T14:34:15.065Z,4.95
2019-02-03T14:36:41.641Z,4.08
2019-02-03T14:39:08.645Z,4.25
2019-02-03T14:41:35.292Z,3.83
2019-02-03T14:44:01.864Z,4.45
2019-02-03T14:46:28.580Z,4.70
2019-02-03T14:48:55.065Z,3.62
2019-02-03T14:51:21.609Z,5.60
2019-02-03T14:53:48.085Z,5.03
2019-02-03T14:56:14.715Z,4.08
2019-02-03T14:58:41.306Z,3.25
2019-02-03T15:01:07.852Z,3.65
2019-02-03T15:03:34.620Z,3.67
2019-02-03T15:06:01.071Z,3.40
2019-02-03T15:08:27.558Z,3.90
2019-02-03T15:10:53.992Z,4.20
2019-02-03T15:13:21.029Z,3.37
2019-02-03T15:15:47.699Z,2.95
2019-02-03T15:18:14.388Z,3.90
2019-02-03T15:20:40.955Z,3.85
2019-02-03T15:23:07.640Z,3.77
2019-02-03T15:25:34.363Z,3.70
2019-02-03T15:28:01.108Z,3.62
2019-02-03T15:30:34.487Z,4.55
2019-02-03T15:33:01.043Z,4.05
2019-02-03T15:35:27.890Z,3.65
2019-02-03T15:37:54.544Z,3.83
2019-02-03T15:40:22.838Z,4.45
2019-02-03T15:42:49.496Z,3.90
2019-02-03T15:45:18.048Z,4.25
2019-02-03T15:47:44.624Z,4.03
2019-02-03T15:50:25.760Z,4.67
2019-02-03T15:52:52.452Z,4.05
2019-02-03T15:55:24.828Z,4.17
2019-02-03T15:57:51.513Z,4.60
2019-02-03T16:00:30.232Z,4.67
2019-02-03T16:02:57.012Z,5.53
2019-02-03T16:05:23.760Z,5.55
2019-02-03T16:07:50.439Z,4.92
2019-02-03T16:10:24.455Z,4.22
2019-02-03T16:12:52.052Z,4.45
2019-02-03T16:15:18.687Z,4.42
2019-02-03T16:17:45.261Z,4.30
2019-02-03T16:20:17.668Z,5.45
2019-02-03T16:22:44.333Z,4.70
2019-02-03T16:25:11.506Z,4.90
2019-02-03T16:27:38.361Z,5.20
2019-02-03T16:30:14.264Z,4.40
2019-02-03T16:32:41.018Z,4.22
2019-02-03T16:35:10.295Z,4.33
2019-02-03T16:37:36.752Z,4.15
2019-02-03T16:40:07.025Z,4.67
2019-02-03T16:42:33.672Z,5.00
2019-02-03T16:45:00.352Z,4.80
2019-02-03T16:47:26.796Z,4.28
2019-02-03T16:49:53.265Z,5.42
2019-02-03T16:52:19.824Z,4.60
2019-02-03T16:54:46.464Z,4.45
2019-02-03T16:57:13.012Z,5.65
2019-02-03T16:59:39.971Z,6.62
2019-02-03T17:02:06.950Z,6.00
2019-02-03T17:04:33.897Z,7.97
2019-02-03T17:07:00.370Z,6.55
2019-02-03T17:09:27.016Z,6.75
2019-02-03T17:11:53.630Z,6.12
2019-02-03T17:14:20.327Z,8.30
2019-02-03T17:16:47.549Z,6.85
2019-02-03T17:19:14.002Z,5.10
2019-02-03T17:21:40.469Z,5.75
2019-02-03T17:24:07.231Z,6.92
2019-02-03T17:26:34.024Z,6.70
2019-02-03T17:29:00.684Z,5.12
2019-02-03T17:31:27.147Z,6.62
2019-02-03T17:33:54.009Z,7.40
2019-02-03T17:36:20.657Z,6.40
2019-02-03T17:38:47.223Z,5.97
2019-02-03T17:41:13.773Z,5.67
2019-02-03T17:43:40.259Z,6.50
2019-02-03T17:46:06.901Z,6.67
2019-02-03T17:48:33.489Z,6.78
2019-02-03T17:50:59.941Z,5.90
2019-02-03T17:53:26.874Z,6.60
2019-02-03T17:55:53.534Z,6.08
2019-02-03T17:58:20.002Z,5.65
2019-02-03T18:00:51.324Z,6.00
2019-02-03T18:03:18.029Z,5.22
2019-02-03T18:05:44.681Z,5.95
2019-02-03T18:08:11.636Z,5.45
2019-02-03T18:10:38.202Z,5.17
2019-02-03T18:13:05.928Z,6.15
2019-02-03T18:15:32.412Z,5.17
2019-02-03T18:17:58.877Z,4.80
2019-02-03T18:20:27.069Z,5.20
2019-02-03T18:22:53.983Z,4.78
2019-02-03T18:25:20.755Z,4.15
2019-02-03T18:27:47.405Z,5.95
2019-02-03T18:30:23.414Z,5.70
2019-02-03T18:32:50.364Z,4.87
2019-02-03T18:35:17.138Z,5.40
2019-02-03T18:37:43.881Z,5.45
2019-02-03T18:40:16.143Z,5.37
2019-02-03T18:42:42.816Z,7.28
2019-02-03T18:45:12.060Z,6.00
2019-02-03T18:47:38.653Z,5.47
2019-02-03T18:50:14.472Z,4.87
2019-02-03T18:52:41.144Z,6.35
2019-02-03T18:55:11.015Z,5.97
2019-02-03T18:57:37.740Z,6.20
2019-02-03T19:00:23.346Z,5.83
2019-02-03T19:02:49.927Z,6.15
2019-02-03T19:05:19.756Z,5.78
2019-02-03T19:07:46.708Z,5.53
2019-02-03T19:10:19.421Z,6.35
2019-02-03T19:12:46.368Z,4.83
2019-02-03T19:15:14.045Z,5.92
2019-02-03T19:17:40.516Z,5.70
2019-02-03T19:20:10.576Z,7.47
2019-02-03T19:22:37.421Z,6.05
2019-02-03T19:25:06.177Z,6.05
2019-02-03T19:27:32.720Z,5.80
2019-02-03T19:29:59.465Z,6.03
2019-02-03T19:32:26.114Z,7.00
2019-02-03T19:34:52.989Z,5.35
2019-02-03T19:37:19.833Z,6.92
2019-02-03T19:39:46.407Z,6.40
2019-02-03T19:42:13.070Z,6.95
2019-02-03T19:44:39.747Z,6.42
2019-02-03T19:47:06.388Z,7.05
2019-02-03T19:49:32.877Z,8.40
2019-02-03T19:51:59.421Z,6.85
2019-02-03T19:54:25.901Z,7.75
2019-02-03T19:56:52.559Z,6.67
2019-02-03T19:59:19.123Z,6.20
2019-02-03T20:01:45.684Z,6.10
2019-02-03T20:04:12.258Z,7.58
2019-02-03T20:06:38.803Z,6.53
2019-02-03T20:09:06.588Z,6.95
2019-02-03T20:11:33.284Z,6.65
2019-02-03T20:14:00.134Z,6.62
2019-02-03T20:16:26.726Z,6.15
2019-02-03T20:18:53.244Z,8.28
2019-02-03T20:21:19.646Z,7.97
2019-02-03T20:23:46.096Z,6.10
2019-02-03T20:26:12.586Z,8.05
2019-02-03T20:28:39.125Z,6.80
2019-02-03T20:31:05.696Z,7.58
2019-02-03T20:33:32.148Z,7.10
2019-02-03T20:35:58.889Z,7.65
2019-02-03T20:38:25.447Z,7.25
2019-02-03T20:40:51.903Z,8.15
2019-02-03T20:43:18.734Z,7.25
2019-02-03T20:45:49.634Z,7.65
2019-02-03T20:48:13.560Z,7.15
2019-02-03T20:50:40.327Z,9.25
2019-02-03T20:53:06.871Z,8.25
2019-02-03T20:55:33.569Z,9.10
2019-02-03T20:58:00.024Z,8.15
2019-02-03T21:00:29.757Z,8.13
2019-02-03T21:02:56.313Z,7.22
2019-02-03T21:05:23.056Z,8.03
2019-02-03T21:07:49.936Z,8.58
2019-02-03T21:10:18.399Z,8.33
2019-02-03T21:12:45.444Z,8.95
2019-02-03T21:15:15.322Z,7.47
2019-02-03T21:17:41.991Z,8.48
2019-02-03T21:20:17.859Z,9.08
2019-02-03T21:22:45.051Z,8.38
2019-02-03T21:25:11.700Z,8.88
2019-02-03T21:27:38.168Z,7.30
2019-02-03T21:30:08.436Z,7.25
2019-02-03T21:32:35.001Z,8.85
2019-02-03T21:35:01.554Z,7.75
2019-02-03T21:37:28.022Z,8.08
2019-02-03T21:39:56.316Z,6.70
2019-02-03T21:42:23.173Z,7.80
2019-02-03T21:44:49.888Z,8.58
2019-02-03T21:47:16.537Z,8.15
2019-02-03T21:49:43.116Z,7.83
2019-02-03T21:52:09.556Z,8.83
2019-02-03T21:54:36.035Z,8.73
2019-02-03T21:57:03.184Z,8.05
2019-02-03T21:59:29.773Z,9.25
2019-02-03T22:01:56.212Z,8.10
2019-02-03T22:04:22.960Z,10.13
2019-02-03T22:06:49.683Z,10.85
2019-02-03T22:09:16.369Z,10.30
2019-02-03T22:11:42.914Z,9.90
2019-02-03T22:14:09.661Z,10.70
2019-02-03T22:16:36.264Z,9.35
2019-02-03T22:19:02.903Z,8.28
2019-02-03T22:21:29.377Z,9.83
2019-02-03T22:23:55.812Z,8.58
2019-02-03T22:26:22.295Z,9.10
2019-02-03T22:28:48.937Z,9.78
2019-02-03T22:31:15.636Z,8.90
2019-02-03T22:33:42.085Z,9.90
2019-02-03T22:36:08.655Z,9.13
2019-02-03T22:38:35.213Z,11.08
2019-02-03T22:41:01.784Z,9.58
2019-02-03T22:43:28.225Z,10.35
2019-02-03T22:46:06.509Z,9.88
2019-02-03T22:48:23.688Z,10.05
2019-02-03T22:50:50.256Z,10.60
2019-02-03T22:53:16.720Z,10.38
2019-02-03T22:55:43.282Z,11.10
2019-02-03T22:58:09.860Z,10.72
2019-02-03T23:00:51.654Z,9.23
2019-02-03T23:03:20.559Z,12.78
2019-02-03T23:05:47.229Z,9.75
2019-02-03T23:08:13.804Z,11.45
2019-02-03T23:10:40.456Z,11.45
2019-02-03T23:13:07.337Z,11.28
2019-02-03T23:15:33.908Z,12.03
2019-02-03T23:18:00.989Z,11.57
2019-02-03T23:20:27.540Z,11.35
2019-02-03T23:22:54.125Z,10.98
2019-02-03T23:25:20.689Z,11.55
2019-02-03T23:27:47.168Z,13.18
2019-02-03T23:30:15.230Z,10.60
2019-02-03T23:32:41.787Z,11.63
2019-02-03T23:35:08.348Z,11.88
2019-02-03T23:37:35.050Z,11.85
2019-02-03T23:40:02.419Z,11.40
2019-02-03T23:42:28.984Z,12.80
2019-02-03T23:44:55.660Z,11.22
2019-02-03T23:47:22.119Z,12.20
2019-02-03T23:49:48.684Z,13.00
2019-02-03T23:52:15.238Z,12.60
2019-02-03T23:54:42.184Z,13.70
2019-02-03T23:57:08.640Z,12.85
2019-02-03T23:59:35.107Z,13.35
